Time;durP1;ratioP1;P1;durP2;ratioP2;P2;SDS_P1;SDS_P2;PMS_P1;PMS_P2;Temp;Humidity;BMP_temperature;BMP_pressure;BME280_temperature;BME280_humidity;BME280_pressure;Samples;Min_cycle;Max_cycle;Signal;HPM_P1;HPM_P2
2023/10/24 00:01:15;;;;;;;7.50;5.05;;;;;;;;;;5073231;28;20196;-68
2023/10/24 00:03:42;;;;;;;6.03;5.18;;;;;;;;;;5072826;28;20205;-68
2023/10/24 00:06:08;;;;;;;8.20;5.00;;;;;;;;;;5072840;28;20204;-69
2023/10/24 00:08:34;;;;;;;9.13;5.03;;;;;;;;;;5072874;28;20200;-68
2023/10/24 00:11:01;;;;;;;6.78;4.93;;;;;;;;;;5072967;28;20221;-68
2023/10/24 00:13:29;;;;;;;5.88;5.30;;;;;;;;;;5071951;28;20211;-69
2023/10/24 00:15:55;;;;;;;6.65;5.00;;;;;;;;;;5072362;28;20591;-69
2023/10/24 00:18:22;;;;;;;7.47;5.22;;;;;;;;;;5073183;28;20291;-69
2023/10/24 00:20:48;;;;;;;5.10;4.60;;;;;;;;;;5072868;28;20219;-69
2023/10/24 00:23:14;;;;;;;5.63;4.65;;;;;;;;;;5072780;28;20197;-69
2023/10/24 00:25:40;;;;;;;6.82;5.35;;;;;;;;;;5072132;28;20224;-68
2023/10/24 00:28:07;;;;;;;6.40;5.10;;;;;;;;;;5072589;28;20207;-68
2023/10/24 00:30:34;;;;;;;8.68;4.65;;;;;;;;;;5072285;28;20220;-68
2023/10/24 00:33:00;;;;;;;4.88;4.43;;;;;;;;;;5072258;28;20553;-68
2023/10/24 00:35:27;;;;;;;6.07;4.70;;;;;;;;;;5072138;28;20247;-68
2023/10/24 00:37:53;;;;;;;5.22;4.70;;;;;;;;;;5072446;28;20626;-68
2023/10/24 00:40:19;;;;;;;5.13;4.60;;;;;;;;;;5072293;28;20201;-68
2023/10/24 00:42:46;;;;;;;5.57;4.70;;;;;;;;;;5072239;28;20228;-68
2023/10/24 00:45:12;;;;;;;7.55;4.93;;;;;;;;;;5071822;28;20243;-69
2023/10/24 00:47:40;;;;;;;5.22;4.72;;;;;;;;;;5072022;28;20683;-69
2023/10/24 00:50:07;;;;;;;4.97;4.45;;;;;;;;;;5072487;28;20204;-69
2023/10/24 00:52:33;;;;;;;5.60;4.95;;;;;;;;;;5072104;28;20259;-69
2023/10/24 00:55:00;;;;;;;7.85;4.88;;;;;;;;;;5071576;28;20731;-69
2023/10/24 00:57:26;;;;;;;5.00;4.45;;;;;;;;;;5071923;28;20204;-69
2023/10/24 00:59:53;;;;;;;5.72;4.78;;;;;;;;;;5072434;28;20211;-69
2023/10/24 01:02:20;;;;;;;7.53;4.72;;;;;;;;;;5072416;28;20204;-69
2023/10/24 01:04:48;;;;;;;5.43;4.45;;;;;;;;;;5071705;28;20317;-69
2023/10/24 01:07:14;;;;;;;5.75;4.68;;;;;;;;;;5071752;28;20208;-69
2023/10/24 01:09:40;;;;;;;5.55;4.32;;;;;;;;;;5071927;28;20200;-69
2023/10/24 01:12:07;;;;;;;8.82;5.03;;;;;;;;;;5071746;28;20220;-69
2023/10/24 01:14:33;;;;;;;7.97;4.85;;;;;;;;;;5071303;28;20237;-69
2023/10/24 01:17:02;;;;;;;6.03;4.45;;;;;;;;;;5072000;28;20599;-69
2023/10/24 01:19:29;;;;;;;7.35;4.50;;;;;;;;;;5071552;28;20690;-68
2023/10/24 01:21:57;;;;;;;6.03;4.93;;;;;;;;;;5071881;28;20204;-68
2023/10/24 01:24:23;;;;;;;4.93;4.50;;;;;;;;;;5071275;28;20224;-68
2023/10/24 01:26:50;;;;;;;6.20;4.70;;;;;;;;;;5072039;28;20230;-68
2023/10/24 01:29:16;;;;;;;5.75;4.38;;;;;;;;;;5071616;28;20204;-68
2023/10/24 01:31:42;;;;;;;5.75;4.50;;;;;;;;;;5071426;28;20636;-68
2023/10/24 01:34:08;;;;;;;5.88;4.70;;;;;;;;;;5071530;28;20220;-69
2023/10/24 01:36:35;;;;;;;9.85;4.78;;;;;;;;;;5071680;28;20311;-69
2023/10/24 01:39:02;;;;;;;5.88;4.72;;;;;;;;;;5071573;28;20201;-69
2023/10/24 01:41:29;;;;;;;5.03;4.55;;;;;;;;;;5071454;28;20196;-69
2023/10/24 01:43:56;;;;;;;6.60;4.55;;;;;;;;;;5071522;28;20239;-69
2023/10/24 01:46:22;;;;;;;7.22;4.93;;;;;;;;;;5071719;28;20665;-69
2023/10/24 01:48:48;;;;;;;5.00;4.00;;;;;;;;;;5071659;28;20200;-69
2023/10/24 01:51:14;;;;;;;6.47;4.07;;;;;;;;;;5071546;28;20227;-69
2023/10/24 01:53:41;;;;;;;5.63;4.82;;;;;;;;;;5071656;28;20211;-69
2023/10/24 01:56:10;;;;;;;5.80;4.32;;;;;;;;;;5071095;28;20672;-69
2023/10/24 01:58:36;;;;;;;4.50;3.95;;;;;;;;;;5071661;28;20205;-69
2023/10/24 02:01:03;;;;;;;5.80;4.13;;;;;;;;;;5071622;28;20228;-69
2023/10/24 02:03:29;;;;;;;4.32;4.03;;;;;;;;;;5071554;28;20203;-69
2023/10/24 02:05:55;;;;;;;7.68;4.80;;;;;;;;;;5071053;28;20735;-69
2023/10/24 02:08:21;;;;;;;6.80;4.80;;;;;;;;;;5071219;28;20196;-69
2023/10/24 02:10:48;;;;;;;4.82;4.40;;;;;;;;;;5071213;28;20205;-69
2023/10/24 02:13:15;;;;;;;6.13;4.63;;;;;;;;;;5071272;28;20204;-69
2023/10/24 02:15:41;;;;;;;6.80;4.32;;;;;;;;;;5070955;28;20224;-69
2023/10/24 02:18:08;;;;;;;7.45;4.57;;;;;;;;;;5071146;28;20207;-69
2023/10/24 02:20:34;;;;;;;4.78;4.38;;;;;;;;;;5071425;28;20200;-69
2023/10/24 02:23:00;;;;;;;5.32;4.47;;;;;;;;;;5071142;28;20284;-68
2023/10/24 02:25:27;;;;;;;5.38;4.82;;;;;;;;;;5070858;28;20228;-68
2023/10/24 02:27:53;;;;;;;4.40;3.97;;;;;;;;;;5071499;28;20227;-68
2023/10/24 02:30:22;;;;;;;4.80;4.28;;;;;;;;;;5071238;28;20247;-69
2023/10/24 02:32:49;;;;;;;7.10;4.35;;;;;;;;;;5071442;28;20252;-69
2023/10/24 02:35:15;;;;;;;6.38;4.43;;;;;;;;;;5070952;28;20216;-69
2023/10/24 02:37:41;;;;;;;5.13;4.50;;;;;;;;;;5073143;28;20197;-69
2023/10/24 02:40:08;;;;;;;6.78;4.38;;;;;;;;;;5074785;28;20338;-69
2023/10/24 02:42:35;;;;;;;5.80;4.05;;;;;;;;;;5075047;28;20196;-69
2023/10/24 02:45:01;;;;;;;6.30;4.68;;;;;;;;;;5074238;28;20228;-68
2023/10/24 02:47:29;;;;;;;7.20;4.75;;;;;;;;;;5074904;28;20207;-68
2023/10/24 02:49:55;;;;;;;10.20;4.68;;;;;;;;;;5074651;28;20207;-68
2023/10/24 02:52:21;;;;;;;6.85;4.75;;;;;;;;;;5074210;28;20213;-68
2023/10/24 02:54:47;;;;;;;7.15;4.78;;;;;;;;;;5074060;28;20708;-68
2023/10/24 02:57:15;;;;;;;10.63;4.75;;;;;;;;;;5074593;28;20201;-68
2023/10/24 02:59:41;;;;;;;7.45;4.30;;;;;;;;;;5074608;28;20201;-68
2023/10/24 03:02:08;;;;;;;5.18;4.38;;;;;;;;;;5074308;28;20197;-68
2023/10/24 03:04:35;;;;;;;5.30;4.78;;;;;;;;;;5073947;28;20224;-68
2023/10/24 03:07:02;;;;;;;6.72;5.35;;;;;;;;;;5073876;28;20294;-69
2023/10/24 03:09:28;;;;;;;5.55;5.00;;;;;;;;;;5074454;28;20234;-68
2023/10/24 03:11:54;;;;;;;5.78;4.80;;;;;;;;;;5074270;28;20227;-69
2023/10/24 03:14:20;;;;;;;8.65;5.05;;;;;;;;;;5073709;28;20225;-69
2023/10/24 03:16:48;;;;;;;5.15;4.65;;;;;;;;;;5073817;28;20211;-69
2023/10/24 03:19:15;;;;;;;6.85;4.25;;;;;;;;;;5073716;28;20768;-69
2023/10/24 03:21:42;;;;;;;7.20;5.15;;;;;;;;;;5073691;28;20201;-69
2023/10/24 03:24:09;;;;;;;7.05;5.22;;;;;;;;;;5073519;28;20700;-68
2023/10/24 03:26:36;;;;;;;9.82;5.18;;;;;;;;;;5073747;28;20207;-69
2023/10/24 03:29:02;;;;;;;5.85;4.82;;;;;;;;;;5073751;28;20205;-69
2023/10/24 03:31:30;;;;;;;7.30;4.80;;;;;;;;;;5073786;28;20207;-68
2023/10/24 03:33:56;;;;;;;8.55;5.25;;;;;;;;;;5073552;28;20207;-68
2023/10/24 03:36:22;;;;;;;8.23;5.25;;;;;;;;;;5073785;28;20211;-68
2023/10/24 03:38:50;;;;;;;7.25;5.13;;;;;;;;;;5073391;28;20696;-68
2023/10/24 03:41:16;;;;;;;5.30;4.85;;;;;;;;;;5073425;28;20204;-68
2023/10/24 03:43:47;;;;;;;5.28;4.78;;;;;;;;;;5073123;28;20196;-69
2023/10/24 03:46:13;;;;;;;9.07;5.20;;;;;;;;;;5073351;28;20232;-69
2023/10/24 03:48:40;;;;;;;7.93;5.10;;;;;;;;;;5073035;28;20723;-69
2023/10/24 03:51:06;;;;;;;9.13;5.38;;;;;;;;;;5073381;28;20225;-69
2023/10/24 03:53:32;;;;;;;10.57;5.85;;;;;;;;;;5073313;28;20616;-69
2023/10/24 03:56:00;;;;;;;7.20;5.25;;;;;;;;;;5073075;28;20224;-69
2023/10/24 03:58:26;;;;;;;9.35;4.90;;;;;;;;;;5073260;28;20212;-69
2023/10/24 04:00:53;;;;;;;5.60;5.07;;;;;;;;;;5072983;28;20201;-69
2023/10/24 04:03:19;;;;;;;6.05;5.35;;;;;;;;;;5073252;28;20200;-69
2023/10/24 04:05:46;;;;;;;9.02;5.20;;;;;;;;;;5072441;28;20232;-69
2023/10/24 04:08:12;;;;;;;10.05;4.95;;;;;;;;;;5072867;28;20208;-68
2023/10/24 04:10:38;;;;;;;7.65;5.43;;;;;;;;;;5072902;28;20200;-68
2023/10/24 04:13:06;;;;;;;7.53;5.25;;;;;;;;;;5072663;28;20227;-68
2023/10/24 04:15:32;;;;;;;8.27;5.45;;;;;;;;;;5072403;28;20231;-68
2023/10/24 04:17:58;;;;;;;8.25;5.65;;;;;;;;;;5072627;28;20211;-68
2023/10/24 04:20:25;;;;;;;8.65;5.70;;;;;;;;;;5073250;28;20215;-68
2023/10/24 04:22:52;;;;;;;6.25;5.50;;;;;;;;;;5072840;28;20200;-68
2023/10/24 04:25:18;;;;;;;12.43;8.02;;;;;;;;;;5072679;28;20331;-69
2023/10/24 04:27:44;;;;;;;19.15;13.48;;;;;;;;;;5072967;28;20197;-68
2023/10/24 04:30:13;;;;;;;9.48;7.88;;;;;;;;;;5072451;28;20200;-68
2023/10/24 04:32:39;;;;;;;16.00;11.13;;;;;;;;;;5072533;28;20274;-69
2023/10/24 04:35:06;;;;;;;11.57;9.50;;;;;;;;;;5072026;28;20699;-69
2023/10/24 04:37:32;;;;;;;18.60;10.30;;;;;;;;;;5072475;28;20205;-68
2023/10/24 04:39:58;;;;;;;17.42;12.00;;;;;;;;;;5072557;28;20204;-69
2023/10/24 04:42:24;;;;;;;16.50;10.85;;;;;;;;;;5072367;28;20204;-69
2023/10/24 04:44:51;;;;;;;11.98;8.43;;;;;;;;;;5072100;28;20220;-69
2023/10/24 04:47:18;;;;;;;11.30;7.30;;;;;;;;;;5072555;28;20204;-69
2023/10/24 04:49:45;;;;;;;10.65;6.20;;;;;;;;;;5072636;28;20203;-69
2023/10/24 04:52:12;;;;;;;7.50;6.18;;;;;;;;;;5072752;28;20599;-69
2023/10/24 04:54:38;;;;;;;7.05;6.15;;;;;;;;;;5073656;28;20220;-69
2023/10/24 04:57:05;;;;;;;5.72;5.13;;;;;;;;;;5074177;28;20200;-69
2023/10/24 04:59:31;;;;;;;6.72;5.13;;;;;;;;;;5073383;28;20201;-68
2023/10/24 05:01:57;;;;;;;7.05;5.35;;;;;;;;;;5072264;28;20204;-69
2023/10/24 05:04:25;;;;;;;6.82;5.68;;;;;;;;;;5071973;28;20227;-68
2023/10/24 05:06:51;;;;;;;5.72;5.13;;;;;;;;;;5071981;28;20208;-68
2023/10/24 05:09:18;;;;;;;6.72;5.28;;;;;;;;;;5072038;28;20223;-68
2023/10/24 05:11:44;;;;;;;10.32;6.15;;;;;;;;;;5071923;28;20219;-68
2023/10/24 05:14:10;;;;;;;9.02;6.03;;;;;;;;;;5071574;28;20227;-68
2023/10/24 05:16:38;;;;;;;10.30;6.60;;;;;;;;;;5072196;28;20200;-68
2023/10/24 05:19:04;;;;;;;8.07;6.20;;;;;;;;;;5071755;28;20234;-69
2023/10/24 05:21:32;;;;;;;8.10;5.97;;;;;;;;;;5071667;28;20196;-69
2023/10/24 05:23:58;;;;;;;9.68;5.80;;;;;;;;;;5071405;28;20200;-69
2023/10/24 05:26:25;;;;;;;6.30;5.53;;;;;;;;;;5071470;28;20212;-69
2023/10/24 05:28:51;;;;;;;9.27;6.20;;;;;;;;;;5071543;28;20215;-69
2023/10/24 05:31:17;;;;;;;6.28;5.68;;;;;;;;;;5071966;28;20216;-69
2023/10/24 05:33:44;;;;;;;6.22;5.63;;;;;;;;;;5071324;28;20595;-68
2023/10/24 05:36:10;;;;;;;8.23;5.40;;;;;;;;;;5071768;28;20200;-61
2023/10/24 05:38:38;;;;;;;5.72;5.07;;;;;;;;;;5071621;28;20204;-61
2023/10/24 05:41:04;;;;;;;6.07;5.47;;;;;;;;;;5071607;28;20207;-61
2023/10/24 05:43:30;;;;;;;6.60;5.28;;;;;;;;;;5071479;28;20196;-61
2023/10/24 05:45:57;;;;;;;6.40;5.80;;;;;;;;;;5071361;28;20231;-61
2023/10/24 05:48:23;;;;;;;8.68;6.18;;;;;;;;;;5071399;28;20673;-61
2023/10/24 05:50:49;;;;;;;6.32;5.78;;;;;;;;;;5071342;28;20208;-62
2023/10/24 05:53:15;;;;;;;6.88;6.18;;;;;;;;;;5076742;28;20222;-60
2023/10/24 05:55:43;;;;;;;8.23;6.60;;;;;;;;;;5087104;28;20227;-61
2023/10/24 05:58:09;;;;;;;10.02;6.95;;;;;;;;;;5085281;28;20212;-60
2023/10/24 06:00:36;;;;;;;6.93;6.22;;;;;;;;;;5085467;28;20679;-60
2023/10/24 06:03:02;;;;;;;7.35;6.65;;;;;;;;;;5085705;28;20203;-60
2023/10/24 06:05:28;;;;;;;7.43;6.63;;;;;;;;;;5085600;28;20596;-60
2023/10/24 06:07:55;;;;;;;7.75;6.35;;;;;;;;;;5085535;28;20214;-59
2023/10/24 06:10:21;;;;;;;9.18;7.43;;;;;;;;;;5080834;28;20209;-59
2023/10/24 06:12:48;;;;;;;7.72;6.90;;;;;;;;;;5067781;28;20648;-60
2023/10/24 06:15:15;;;;;;;7.57;6.80;;;;;;;;;;5068725;28;20232;-60
2023/10/24 06:17:41;;;;;;;9.07;6.70;;;;;;;;;;5070557;28;20220;-59
2023/10/24 06:20:08;;;;;;;8.40;7.28;;;;;;;;;;5065324;28;20223;-59
2023/10/24 06:22:34;;;;;;;7.97;6.70;;;;;;;;;;5074910;28;20254;-60
2023/10/24 06:25:01;;;;;;;6.78;6.18;;;;;;;;;;5066740;28;20212;-60
2023/10/24 06:27:27;;;;;;;6.28;5.78;;;;;;;;;;5086816;28;20294;-62
2023/10/24 06:29:55;;;;;;;5.97;5.47;;;;;;;;;;5087316;28;20211;-62
2023/10/24 06:32:21;;;;;;;5.80;5.28;;;;;;;;;;5077004;28;20204;-62
2023/10/24 06:34:47;;;;;;;10.13;5.55;;;;;;;;;;5067207;28;20228;-62
2023/10/24 06:37:14;;;;;;;6.30;5.32;;;;;;;;;;5067380;28;20212;-61
2023/10/24 06:39:40;;;;;;;6.15;4.90;;;;;;;;;;5084479;28;20697;-62
2023/10/24 06:42:06;;;;;;;5.90;4.65;;;;;;;;;;5088167;28;20234;-61
2023/10/24 06:44:32;;;;;;;5.55;5.10;;;;;;;;;;5087460;28;20228;-61
2023/10/24 06:47:00;;;;;;;5.60;5.03;;;;;;;;;;5082255;28;20691;-62
2023/10/24 06:49:26;;;;;;;5.80;5.30;;;;;;;;;;5067112;28;20220;-62
2023/10/24 06:51:53;;;;;;;6.32;5.18;;;;;;;;;;5066332;28;20212;-61
2023/10/24 06:54:19;;;;;;;9.05;5.45;;;;;;;;;;5066708;28;20232;-61
2023/10/24 06:56:45;;;;;;;6.72;5.95;;;;;;;;;;5083368;28;20204;-60
2023/10/24 06:59:11;;;;;;;6.55;5.45;;;;;;;;;;5086625;28;20682;-62
2023/10/24 07:01:38;;;;;;;10.38;5.82;;;;;;;;;;5087636;28;20216;-63
2023/10/24 07:04:05;;;;;;;9.68;5.82;;;;;;;;;;5068537;28;20220;-63
2023/10/24 07:06:32;;;;;;;8.32;6.30;;;;;;;;;;5066947;28;20215;-61
2023/10/24 07:09:00;;;;;;;12.30;6.28;;;;;;;;;;5071577;28;21359;-62
2023/10/24 07:11:26;;;;;;;6.13;5.53;;;;;;;;;;5086671;28;20257;-61
2023/10/24 07:13:52;;;;;;;11.98;6.82;;;;;;;;;;5087018;28;20254;-63
2023/10/24 07:16:19;;;;;;;7.43;5.75;;;;;;;;;;5087277;28;20203;-60
2023/10/24 07:18:45;;;;;;;10.52;6.55;;;;;;;;;;5086808;28;20694;-60
2023/10/24 07:21:15;;;;;;;9.25;6.55;;;;;;;;;;5086770;28;20215;-63
2023/10/24 07:23:41;;;;;;;11.98;6.25;;;;;;;;;;5083385;28;20208;-62
2023/10/24 07:26:07;;;;;;;8.65;6.28;;;;;;;;;;5084281;28;20207;-62
2023/10/24 07:28:34;;;;;;;8.73;6.00;;;;;;;;;;5086778;28;20208;-63
2023/10/24 07:31:00;;;;;;;9.73;6.20;;;;;;;;;;5086491;28;20589;-63
2023/10/24 07:33:26;;;;;;;9.07;6.40;;;;;;;;;;5086610;28;20235;-62
2023/10/24 07:35:52;;;;;;;13.35;6.00;;;;;;;;;;5086046;28;20219;-64
2023/10/24 07:38:20;;;;;;;10.15;6.57;;;;;;;;;;5079325;28;20213;-64
2023/10/24 07:40:47;;;;;;;7.93;6.80;;;;;;;;;;5066391;28;20220;-64
2023/10/24 07:43:13;;;;;;;6.50;5.95;;;;;;;;;;5066268;28;20232;-64
2023/10/24 07:45:40;;;;;;;12.05;6.78;;;;;;;;;;5086117;28;20741;-64
2023/10/24 07:48:06;;;;;;;7.53;6.30;;;;;;;;;;5074420;28;20295;-64
2023/10/24 07:50:32;;;;;;;9.00;6.00;;;;;;;;;;5085397;28;20240;-63
2023/10/24 07:52:59;;;;;;;11.32;6.20;;;;;;;;;;5083227;28;20617;-64
2023/10/24 07:55:27;;;;;;;6.65;6.07;;;;;;;;;;5083338;28;20782;-64
2023/10/24 07:57:54;;;;;;;8.30;6.47;;;;;;;;;;5082916;28;20208;-64
2023/10/24 08:00:20;;;;;;;6.97;5.40;;;;;;;;;;5082715;28;20687;-63
2023/10/24 08:02:46;;;;;;;9.60;6.45;;;;;;;;;;5083562;28;20547;-63
2023/10/24 08:05:13;;;;;;;8.77;5.35;;;;;;;;;;5081364;28;20224;-63
2023/10/24 08:07:39;;;;;;;8.25;5.80;;;;;;;;;;5065857;28;20219;-63
2023/10/24 08:10:05;;;;;;;5.63;5.10;;;;;;;;;;5065780;28;20208;-63
2023/10/24 08:12:33;;;;;;;6.43;5.20;;;;;;;;;;5065546;28;20212;-63
2023/10/24 08:14:59;;;;;;;9.18;5.68;;;;;;;;;;5065345;28;20227;-64
2023/10/24 08:17:26;;;;;;;6.90;6.18;;;;;;;;;;5065628;28;20208;-63
2023/10/24 08:19:52;;;;;;;6.45;5.85;;;;;;;;;;5064991;28;20683;-63
2023/10/24 08:22:18;;;;;;;7.72;5.50;;;;;;;;;;5065629;28;20230;-64
2023/10/24 08:24:44;;;;;;;7.93;6.10;;;;;;;;;;5064705;28;20591;-63
2023/10/24 08:27:11;;;;;;;6.18;5.38;;;;;;;;;;5066161;28;20208;-63
2023/10/24 08:29:39;;;;;;;6.50;5.78;;;;;;;;;;5067401;28;20219;-64
2023/10/24 08:32:20;;;;;;;7.00;6.40;;;;;;;;;;5068539;28;20302;-64
2023/10/24 08:34:46;;;;;;;7.38;6.57;;;;;;;;;;5066969;28;20232;-64
2023/10/24 08:37:13;;;;;;;9.57;6.75;;;;;;;;;;5065780;28;20634;-63
2023/10/24 08:39:39;;;;;;;11.43;7.28;;;;;;;;;;5078186;28;20690;-64
2023/10/24 08:42:05;;;;;;;8.25;7.28;;;;;;;;;;5085028;28;20233;-64
2023/10/24 08:44:32;;;;;;;10.32;7.35;;;;;;;;;;5073879;28;20711;-64
2023/10/24 08:47:01;;;;;;;11.07;7.03;;;;;;;;;;5065168;28;20200;-63
2023/10/24 08:49:27;;;;;;;12.35;7.47;;;;;;;;;;5065157;28;20213;-64
2023/10/24 08:51:54;;;;;;;12.02;7.80;;;;;;;;;;5065105;28;20211;-63
2023/10/24 08:54:20;;;;;;;14.82;7.82;;;;;;;;;;5064448;28;20246;-64
2023/10/24 08:56:47;;;;;;;10.90;7.60;;;;;;;;;;5064823;28;20215;-64
2023/10/24 08:59:14;;;;;;;10.60;7.32;;;;;;;;;;5064385;28;20226;-64
2023/10/24 09:01:41;;;;;;;11.82;7.55;;;;;;;;;;5065422;28;20606;-64
2023/10/24 09:04:08;;;;;;;8.25;7.25;;;;;;;;;;5064063;28;20759;-64
2023/10/24 09:06:35;;;;;;;10.52;7.70;;;;;;;;;;5064643;28;20204;-63
2023/10/24 09:09:01;;;;;;;12.35;7.78;;;;;;;;;;5085212;28;20215;-63
2023/10/24 09:11:42;;;;;;;9.63;7.25;;;;;;;;;;5085442;28;20218;-64
2023/10/24 09:14:08;;;;;;;13.52;7.65;;;;;;;;;;5083201;28;20609;-63
2023/10/24 09:16:35;;;;;;;9.70;8.68;;;;;;;;;;5082879;28;20207;-63
2023/10/24 09:19:01;;;;;;;14.13;8.40;;;;;;;;;;5082154;28;20215;-63
2023/10/24 09:21:29;;;;;;;12.85;8.05;;;;;;;;;;5081984;28;20203;-64
2023/10/24 09:23:56;;;;;;;11.32;8.05;;;;;;;;;;5082323;28;20207;-64
2023/10/24 09:26:22;;;;;;;9.45;8.18;;;;;;;;;;5081928;28;20214;-63
2023/10/24 09:28:55;;;;;;;11.25;8.40;;;;;;;;;;5082317;28;20218;-60
2023/10/24 09:31:23;;;;;;;9.65;7.70;;;;;;;;;;5083487;28;20203;-61
2023/10/24 09:33:49;;;;;;;12.65;8.13;;;;;;;;;;5083886;28;20223;-61
2023/10/24 09:36:24;;;;;;;12.57;8.88;;;;;;;;;;5083818;28;20207;-65
2023/10/24 09:38:54;;;;;;;12.60;7.90;;;;;;;;;;5064259;28;20500;-64
2023/10/24 09:41:20;;;;;;;13.70;8.23;;;;;;;;;;5064808;28;20272;-64
2023/10/24 09:43:47;;;;;;;12.23;8.50;;;;;;;;;;5063897;28;20211;-65
2023/10/24 09:46:15;;;;;;;9.65;7.97;;;;;;;;;;5066198;28;20601;-65
2023/10/24 09:48:43;;;;;;;15.90;8.63;;;;;;;;;;5068391;28;20208;-63
2023/10/24 09:51:09;;;;;;;15.52;8.35;;;;;;;;;;5067969;28;20241;-62
2023/10/24 09:53:36;;;;;;;15.07;8.55;;;;;;;;;;5087598;28;20597;-63
2023/10/24 09:56:04;;;;;;;15.30;9.10;;;;;;;;;;5087814;28;20234;-63
2023/10/24 09:58:31;;;;;;;18.02;8.55;;;;;;;;;;5088014;28;20218;-63
2023/10/24 10:00:58;;;;;;;11.68;9.30;;;;;;;;;;5088793;28;20580;-63
2023/10/24 10:03:25;;;;;;;17.90;9.88;;;;;;;;;;5075797;28;20205;-63
2023/10/24 10:05:51;;;;;;;13.68;10.00;;;;;;;;;;5067802;28;20228;-63
2023/10/24 10:08:18;;;;;;;14.23;8.90;;;;;;;;;;5068159;28;20312;-63
2023/10/24 10:10:46;;;;;;;14.70;9.43;;;;;;;;;;5068194;28;20208;-62
2023/10/24 10:13:15;;;;;;;10.50;8.32;;;;;;;;;;5068144;28;20219;-62
2023/10/24 10:15:51;;;;;;;14.23;8.45;;;;;;;;;;5067247;28;20232;-63
2023/10/24 10:18:24;;;;;;;11.98;8.60;;;;;;;;;;5067390;28;20223;-62
2023/10/24 10:20:57;;;;;;;10.02;8.55;;;;;;;;;;5081436;28;20206;-61
2023/10/24 10:23:31;;;;;;;10.63;8.63;;;;;;;;;;5088356;28;20211;-63
2023/10/24 10:26:06;;;;;;;13.43;8.45;;;;;;;;;;5072247;28;20655;-62
2023/10/24 10:28:50;;;;;;;8.77;7.70;;;;;;;;;;5081233;28;20249;-64
2023/10/24 10:31:28;;;;;;;11.15;7.75;;;;;;;;;;5073743;28;20212;-60
2023/10/24 10:33:55;;;;;;;9.93;7.78;;;;;;;;;;5067148;28;20804;-62
2023/10/24 10:36:21;;;;;;;8.15;7.35;;;;;;;;;;5067297;28;20204;-61
2023/10/24 10:38:48;;;;;;;9.02;7.57;;;;;;;;;;5067403;28;20205;-61
2023/10/24 10:41:33;;;;;;;7.80;7.03;;;;;;;;;;5066903;28;20208;-61
2023/10/24 10:44:01;;;;;;;8.25;7.03;;;;;;;;;;5067176;28;20232;-61
2023/10/24 10:46:29;;;;;;;9.43;7.80;;;;;;;;;;5067037;28;20627;-61
2023/10/24 10:48:57;;;;;;;10.30;7.30;;;;;;;;;;5071200;28;20576;-61
2023/10/24 10:51:27;;;;;;;9.20;7.55;;;;;;;;;;5087113;28;20243;-62
2023/10/24 10:53:57;;;;;;;11.20;9.80;;;;;;;;;;5086742;28;20611;-61
2023/10/24 10:56:25;;;;;;;11.18;8.43;;;;;;;;;;5087224;28;20218;-63
2023/10/24 10:59:00;;;;;;;11.77;9.45;;;;;;;;;;5086269;28;20303;-61
2023/10/24 11:01:41;;;;;;;12.68;9.52;;;;;;;;;;5087185;28;20207;-64
2023/10/24 11:04:12;;;;;;;14.20;8.23;;;;;;;;;;5083939;28;20365;-64
2023/10/24 11:06:41;;;;;;;10.20;9.07;;;;;;;;;;5066379;28;20219;-61
2023/10/24 11:09:08;;;;;;;11.13;8.65;;;;;;;;;;5072670;28;20718;-61
2023/10/24 11:11:35;;;;;;;10.82;7.75;;;;;;;;;;5086856;28;20204;-62
2023/10/24 11:14:13;;;;;;;11.60;8.30;;;;;;;;;;5086886;28;20232;-65
2023/10/24 11:16:41;;;;;;;11.80;7.45;;;;;;;;;;5087331;28;20683;-65
2023/10/24 11:19:07;;;;;;;9.55;7.40;;;;;;;;;;5087184;28;20432;-61
2023/10/24 11:21:34;;;;;;;10.23;6.78;;;;;;;;;;5086730;28;20693;-64
2023/10/24 11:24:00;;;;;;;9.35;7.05;;;;;;;;;;5065893;28;20225;-61
2023/10/24 11:26:27;;;;;;;8.23;6.38;;;;;;;;;;5076342;28;20214;-62
2023/10/24 11:28:54;;;;;;;7.53;6.82;;;;;;;;;;5086118;28;20597;-62
2023/10/24 11:31:21;;;;;;;11.50;7.38;;;;;;;;;;5086389;28;20203;-60
2023/10/24 11:33:49;;;;;;;13.57;7.70;;;;;;;;;;5086452;28;20580;-60
2023/10/24 11:36:15;;;;;;;10.85;7.03;;;;;;;;;;5086216;28;20218;-61
2023/10/24 11:38:41;;;;;;;9.90;7.22;;;;;;;;;;5086518;28;20681;-60
2023/10/24 11:41:08;;;;;;;8.98;7.28;;;;;;;;;;5079932;28;20217;-61
2023/10/24 11:43:34;;;;;;;8.65;7.55;;;;;;;;;;5066455;28;20219;-60
2023/10/24 11:46:00;;;;;;;8.40;7.57;;;;;;;;;;5066360;28;20227;-60
2023/10/24 11:48:26;;;;;;;8.82;7.25;;;;;;;;;;5066666;28;20723;-60
2023/10/24 11:50:54;;;;;;;9.65;7.28;;;;;;;;;;5066416;28;20209;-60
2023/10/24 11:53:21;;;;;;;10.85;7.40;;;;;;;;;;5066259;28;20208;-60
2023/10/24 11:55:47;;;;;;;8.30;7.50;;;;;;;;;;5065740;28;20224;-60
2023/10/24 11:58:13;;;;;;;13.88;8.02;;;;;;;;;;5066209;28;20208;-60
2023/10/24 12:00:41;;;;;;;13.32;7.88;;;;;;;;;;5072115;28;20586;-61
2023/10/24 12:03:07;;;;;;;10.20;7.32;;;;;;;;;;5077295;28;20266;-62
2023/10/24 12:05:34;;;;;;;8.20;7.40;;;;;;;;;;5066993;28;20769;-61
2023/10/24 12:08:02;;;;;;;10.35;7.93;;;;;;;;;;5066345;28;20295;-60
2023/10/24 12:10:28;;;;;;;8.48;6.53;;;;;;;;;;5081566;28;20211;-60
2023/10/24 12:12:55;;;;;;;8.57;7.72;;;;;;;;;;5067027;28;20208;-59
2023/10/24 12:15:22;;;;;;;8.65;7.78;;;;;;;;;;5065534;28;20232;-59
2023/10/24 12:17:50;;;;;;;17.27;11.05;;;;;;;;;;5066360;28;20208;-61
2023/10/24 12:20:16;;;;;;;18.17;12.65;;;;;;;;;;5081183;28;20310;-62
2023/10/24 12:22:46;;;;;;;20.88;12.75;;;;;;;;;;5084985;28;20207;-62
2023/10/24 12:25:14;;;;;;;19.55;13.32;;;;;;;;;;5083425;28;20238;-61
2023/10/24 12:27:40;;;;;;;14.80;11.45;;;;;;;;;;5085584;28;20208;-62
2023/10/24 12:30:07;;;;;;;13.02;8.57;;;;;;;;;;5072483;28;20234;-61
2023/10/24 12:32:33;;;;;;;11.38;7.38;;;;;;;;;;5085544;28;20820;-61
2023/10/24 12:34:59;;;;;;;12.43;7.38;;;;;;;;;;5083351;28;20547;-62
2023/10/24 12:37:26;;;;;;;10.18;7.72;;;;;;;;;;5085500;28;20203;-62
2023/10/24 12:39:53;;;;;;;8.25;6.50;;;;;;;;;;5067675;28;20212;-62
2023/10/24 12:42:21;;;;;;;10.40;8.13;;;;;;;;;;5064909;28;20578;-62
2023/10/24 12:44:47;;;;;;;14.30;9.48;;;;;;;;;;5064746;28;20228;-62
2023/10/24 12:47:13;;;;;;;13.25;8.70;;;;;;;;;;5064937;28;20200;-61
2023/10/24 12:49:40;;;;;;;14.18;8.15;;;;;;;;;;5065063;28;20220;-63
2023/10/24 12:52:06;;;;;;;10.48;7.07;;;;;;;;;;5064566;28;20216;-61
2023/10/24 12:54:32;;;;;;;8.65;7.20;;;;;;;;;;5063742;28;20247;-58
2023/10/24 12:56:59;;;;;;;7.38;6.47;;;;;;;;;;5078307;28;20663;-62
2023/10/24 12:59:26;;;;;;;7.18;6.57;;;;;;;;;;5086313;28;20230;-63
2023/10/24 13:01:53;;;;;;;10.57;6.53;;;;;;;;;;5085155;28;20219;-63
2023/10/24 13:04:19;;;;;;;9.25;7.35;;;;;;;;;;5084771;28;20255;-61
2023/10/24 13:06:46;;;;;;;7.85;6.88;;;;;;;;;;5085170;28;20723;-61
2023/10/24 13:09:12;;;;;;;9.93;6.88;;;;;;;;;;5084811;28;20207;-65
2023/10/24 13:11:41;;;;;;;7.60;6.85;;;;;;;;;;5064507;28;20212;-60
2023/10/24 13:14:08;;;;;;;10.07;6.50;;;;;;;;;;5064094;28;20746;-59
2023/10/24 13:16:35;;;;;;;7.50;6.80;;;;;;;;;;5063965;28;20603;-59
2023/10/24 13:19:01;;;;;;;6.75;5.88;;;;;;;;;;5064933;28;20305;-61
2023/10/24 13:21:28;;;;;;;7.78;6.85;;;;;;;;;;5063985;28;20472;-59
2023/10/24 13:23:54;;;;;;;7.20;6.50;;;;;;;;;;5068416;28;20211;-60
2023/10/24 13:26:20;;;;;;;12.00;6.40;;;;;;;;;;5067423;28;20215;-58
2023/10/24 13:28:46;;;;;;;12.20;8.30;;;;;;;;;;5063829;28;20298;-58
2023/10/24 13:31:13;;;;;;;8.60;6.90;;;;;;;;;;5064452;28;20208;-59
2023/10/24 13:33:40;;;;;;;8.43;5.93;;;;;;;;;;5075191;28;20589;-58
2023/10/24 13:36:07;;;;;;;7.03;6.32;;;;;;;;;;5070124;28;20220;-61
2023/10/24 13:38:33;;;;;;;6.80;5.90;;;;;;;;;;5084434;28;20223;-59
2023/10/24 13:40:59;;;;;;;8.02;5.57;;;;;;;;;;5084179;28;20701;-60
2023/10/24 13:43:25;;;;;;;6.45;5.78;;;;;;;;;;5064322;28;20373;-63
2023/10/24 13:45:52;;;;;;;6.20;5.70;;;;;;;;;;5063655;28;20221;-63
2023/10/24 13:48:18;;;;;;;7.55;6.70;;;;;;;;;;5072848;28;20400;-63
2023/10/24 13:50:46;;;;;;;9.90;6.90;;;;;;;;;;5084612;28;20210;-62
2023/10/24 13:53:12;;;;;;;8.38;5.75;;;;;;;;;;5083915;28;20580;-62
2023/10/24 13:55:38;;;;;;;10.15;5.88;;;;;;;;;;5083627;28;20220;-62
2023/10/24 13:58:05;;;;;;;9.10;5.90;;;;;;;;;;5083430;28;20679;-62
2023/10/24 14:00:31;;;;;;;7.72;5.93;;;;;;;;;;5073869;28;20569;-61
2023/10/24 14:02:57;;;;;;;6.57;5.97;;;;;;;;;;5072631;28;20200;-60
2023/10/24 14:05:24;;;;;;;6.60;5.53;;;;;;;;;;5083623;28;20638;-61
2023/10/24 14:07:52;;;;;;;6.20;5.60;;;;;;;;;;5083136;28;20203;-62
2023/10/24 14:10:19;;;;;;;5.40;4.90;;;;;;;;;;5083876;28;20257;-63
2023/10/24 14:12:45;;;;;;;6.07;5.60;;;;;;;;;;5083963;28;20568;-63
2023/10/24 14:15:11;;;;;;;5.93;5.40;;;;;;;;;;5073389;28;20232;-63
2023/10/24 14:17:38;;;;;;;6.32;5.72;;;;;;;;;;5064181;28;20208;-63
2023/10/24 14:20:05;;;;;;;7.93;6.13;;;;;;;;;;5080937;28;20216;-63
2023/10/24 14:22:31;;;;;;;6.57;5.78;;;;;;;;;;5068526;28;20687;-63
2023/10/24 14:24:58;;;;;;;7.60;6.50;;;;;;;;;;5083383;28;20239;-63
2023/10/24 14:27:25;;;;;;;7.32;6.57;;;;;;;;;;5084572;28;20207;-63
2023/10/24 14:29:51;;;;;;;7.82;6.05;;;;;;;;;;5084112;28;20216;-63
2023/10/24 14:32:17;;;;;;;7.03;6.13;;;;;;;;;;5075969;28;20240;-63
2023/10/24 14:34:43;;;;;;;8.40;5.97;;;;;;;;;;5067204;28;20228;-63
2023/10/24 14:37:10;;;;;;;8.30;6.45;;;;;;;;;;5068015;28;20208;-62